Time,TemperatureF,DewpointF,PressureIn,WindDirection,WindDirectionDegrees,WindSpeedMPH,WindSpeedGustMPH,Humidity,HourlyPrecipIn,Conditions,Clouds,dailyrainin,SoftwareType,DateUTC
2013-11-24 00:12:00,27.1,15.8,29.72,SW,225,5.8,-999.0,62,-99.99,,,0.00,Acu-Link.com,2013-11-24 05:12:00,
2013-11-24 00:27:00,26.8,14.8,29.72,NE,45,7.3,-999.0,60,-99.99,,,0.00,Acu-Link.com,2013-11-24 05:27:00,
2013-11-24 00:42:00,26.2,16.8,29.71,West,270,6.8,-999.0,67,-99.99,,,0.00,Acu-Link.com,2013-11-24 05:42:00,
2013-11-24 00:57:00,25.9,16.8,29.72,WNW,292,6.3,-999.0,68,-99.99,,,0.00,Acu-Link.com,2013-11-24 05:57:00,
2013-11-24 01:12:00,25.5,16.4,29.72,SSW,202,7.3,-999.0,68,-99.99,,,0.00,Acu-Link.com,2013-11-24 06:12:00,
2013-11-24 01:27:00,25.3,15.2,29.72,West,270,4.2,-999.0,65,-99.99,,,0.00,Acu-Link.com,2013-11-24 06:27:00,
2013-11-24 01:42:00,24.6,16.6,29.73,NNE,22,7.3,-999.0,71,-99.99,,,0.00,Acu-Link.com,2013-11-24 06:42:00,
2013-11-24 01:58:00,24.1,14.4,29.73,ENE,67,3.7,-999.0,66,-99.99,,,0.00,Acu-Link.com,2013-11-24 06:58:00,
2013-11-24 02:13:00,23.9,12.4,29.73,East,90,3.7,-999.0,61,-99.99,,,0.00,Acu-Link.com,2013-11-24 07:13:00,
2013-11-24 02:28:00,23.7,12.2,29.73,West,270,4.7,-999.0,61,-99.99,,,0.00,Acu-Link.com,2013-11-24 07:28:00,
2013-11-24 02:44:00,23.4,12.7,29.73,SW,225,11.9,-999.0,63,-99.99,,,0.00,Acu-Link.com,2013-11-24 07:44:00,
2013-11-24 02:59:00,23.2,12.5,29.73,South,180,4.7,-999.0,63,-99.99,,,0.00,Acu-Link.com,2013-11-24 07:59:00,
2013-11-24 03:14:00,22.6,12.3,29.74,SW,225,4.7,-999.0,64,-99.99,,,0.00,Acu-Link.com,2013-11-24 08:14:00,
2013-11-24 03:29:00,22.5,11.8,29.73,WSW,247,8.3,-999.0,63,-99.99,,,0.00,Acu-Link.com,2013-11-24 08:29:00,
2013-11-24 03:44:00,22.1,11.8,29.73,East,90,4.7,-999.0,64,-99.99,,,0.00,Acu-Link.com,2013-11-24 08:44:00,
2013-11-24 03:59:00,22.1,11.8,29.73,WSW,247,6.3,-999.0,64,-99.99,,,0.00,Acu-Link.com,2013-11-24 08:59:00,
2013-11-24 04:14:00,21.7,11.8,29.74,West,270,3.7,-999.0,65,-99.99,,,0.00,Acu-Link.com,2013-11-24 09:14:00,
2013-11-24 04:29:00,21.6,11.7,29.74,SW,225,3.7,-999.0,65,-99.99,,,0.00,Acu-Link.com,2013-11-24 09:29:00,
2013-11-24 04:45:00,21.6,12.0,29.74,West,270,4.2,-999.0,66,-99.99,,,0.00,Acu-Link.com,2013-11-24 09:45:00,
2013-11-24 05:00:00,21.4,11.8,29.74,ESE,112,3.2,-999.0,66,-99.99,,,0.00,Acu-Link.com,2013-11-24 10:00:00,
2013-11-24 05:15:00,21.0,11.8,29.74,NNE,22,3.7,-999.0,67,-99.99,,,0.00,Acu-Link.com,2013-11-24 10:15:00,
2013-11-24 05:30:00,21.0,11.8,29.74,SSE,157,3.7,-999.0,67,-99.99,,,0.00,Acu-Link.com,2013-11-24 10:30:00,
2013-11-24 05:45:00,21.0,11.8,29.74,East,90,4.2,-999.0,67,-99.99,,,0.00,Acu-Link.com,2013-11-24 10:45:00,
2013-11-24 06:01:00,21.0,11.8,29.75,NE,45,3.2,-999.0,67,-99.99,,,0.00,Acu-Link.com,2013-11-24 11:01:00,
2013-11-24 06:16:00,21.0,10.8,29.75,NNE,22,8.3,-999.0,64,-99.99,,,0.00,Acu-Link.com,2013-11-24 11:16:00,
2013-11-24 06:31:00,21.0,10.1,29.76,NE,45,7.8,-999.0,62,-99.99,,,0.00,Acu-Link.com,2013-11-24 11:31:00,
2013-11-24 06:46:00,21.0,10.1,29.76,East,90,2.7,-999.0,62,-99.99,,,0.00,Acu-Link.com,2013-11-24 11:46:00,
2013-11-24 07:01:00,20.5,10.3,29.77,North,0,6.8,-999.0,64,-99.99,,,0.00,Acu-Link.com,2013-11-24 12:01:00,
2013-11-24 07:17:00,19.8,10.6,29.78,North,0,6.8,-999.0,67,-99.99,,,0.00,Acu-Link.com,2013-11-24 12:17:00,
2013-11-24 07:32:00,19.9,10.1,29.79,ESE,112,3.7,-999.0,65,-99.99,,,0.00,Acu-Link.com,2013-11-24 12:32:00,
2013-11-24 07:47:00,20.1,9.9,29.80,WNW,292,6.3,-999.0,64,-99.99,,,0.00,Acu-Link.com,2013-11-24 12:47:00,
2013-11-24 08:02:00,20.1,9.6,29.81,NE,45,2.7,-999.0,63,-99.99,,,0.00,Acu-Link.com,2013-11-24 13:02:00,
2013-11-24 08:17:00,19.4,8.2,29.81,ESE,112,3.7,-999.0,61,-99.99,,,0.00,Acu-Link.com,2013-11-24 13:17:00,
2013-11-24 08:32:00,19.0,5.9,29.82,ESE,112,6.8,-999.0,56,-99.99,,,0.00,Acu-Link.com,2013-11-24 13:32:00,
2013-11-24 08:47:00,19.6,5.7,29.82,East,90,4.7,-999.0,54,-99.99,,,0.00,Acu-Link.com,2013-11-24 13:47:00,
2013-11-24 09:03:00,20.3,6.3,29.82,NNE,22,6.8,-999.0,54,-99.99,,,0.00,Acu-Link.com,2013-11-24 14:03:00,
2013-11-24 09:18:00,20.1,6.2,29.83,NW,315,11.4,-999.0,54,-99.99,,,0.00,Acu-Link.com,2013-11-24 14:18:00,
2013-11-24 09:33:00,20.1,5.7,29.82,NE,45,6.8,-999.0,53,-99.99,,,0.00,Acu-Link.com,2013-11-24 14:33:00,
2013-11-24 09:48:00,20.1,5.7,29.82,ESE,112,5.8,-999.0,53,-99.99,,,0.00,Acu-Link.com,2013-11-24 14:48:00,
2013-11-24 10:03:00,20.3,4.7,29.82,North,0,6.8,-999.0,50,-99.99,,,0.00,Acu-Link.com,2013-11-24 15:03:00,
2013-11-24 10:18:00,20.5,4.4,29.82,WSW,247,6.8,-999.0,49,-99.99,,,0.00,Acu-Link.com,2013-11-24 15:18:00,
2013-11-24 10:34:00,20.7,4.6,29.82,South,180,6.3,-999.0,49,-99.99,,,0.00,Acu-Link.com,2013-11-24 15:34:00,
2013-11-24 10:49:00,21.4,3.9,29.82,West,270,4.7,-999.0,46,-99.99,,,0.00,Acu-Link.com,2013-11-24 15:49:00,
2013-11-24 11:19:00,21.7,2.7,29.81,NE,45,13.0,-999.0,43,-99.99,,,0.00,Acu-Link.com,2013-11-24 16:19:00,
2013-11-24 11:34:00,23.0,2.8,29.82,WNW,292,5.8,-999.0,41,-99.99,,,0.00,Acu-Link.com,2013-11-24 16:34:00,
2013-11-24 11:50:00,23.9,3.7,29.81,WNW,292,9.9,-999.0,41,-99.99,,,0.00,Acu-Link.com,2013-11-24 16:50:00,
2013-11-24 12:05:00,23.4,2.1,29.81,SSW,202,8.3,-999.0,39,-99.99,,,0.00,Acu-Link.com,2013-11-24 17:05:00,
2013-11-24 12:20:00,23.9,2.6,29.81,SW,225,11.9,-999.0,39,-99.99,,,0.00,Acu-Link.com,2013-11-24 17:20:00,
2013-11-24 12:35:00,24.8,3.4,29.82,North,0,2.7,-999.0,39,-99.99,,,0.00,Acu-Link.com,2013-11-24 17:35:00,
2013-11-24 12:50:00,23.9,2.6,29.83,NE,45,8.3,-999.0,39,-99.99,,,0.00,Acu-Link.com,2013-11-24 17:50:00,
2013-11-24 13:05:00,24.3,2.9,29.83,SSW,202,8.9,-999.0,39,-99.99,,,0.00,Acu-Link.com,2013-11-24 18:05:00,
2013-11-24 13:20:00,24.8,2.3,29.83,NE,45,5.8,-999.0,37,-99.99,,,0.00,Acu-Link.com,2013-11-24 18:20:00,
2013-11-24 13:35:00,25.0,1.3,29.83,NNE,22,6.3,-999.0,35,-99.99,,,0.00,Acu-Link.com,2013-11-24 18:35:00,
2013-11-24 13:51:00,25.3,0.9,29.83,ESE,112,13.0,-999.0,34,-99.99,,,0.00,Acu-Link.com,2013-11-24 18:51:00,
2013-11-24 14:06:00,25.9,0.1,29.85,NNE,22,5.8,-999.0,32,-99.99,,,0.00,Acu-Link.com,2013-11-24 19:06:00,
2013-11-24 14:21:00,26.2,-0.3,29.86,West,270,15.0,-999.0,31,-99.99,,,0.00,Acu-Link.com,2013-11-24 19:21:00,
2013-11-24 14:36:00,26.6,-3.6,29.87,South,180,7.8,-999.0,26,-99.99,,,0.00,Acu-Link.com,2013-11-24 19:36:00,
2013-11-24 14:51:00,27.0,-4.1,29.87,SW,225,7.8,-999.0,25,-99.99,,,0.00,Acu-Link.com,2013-11-24 19:51:00,
2013-11-24 15:07:00,27.1,-3.2,29.87,SW,225,8.9,-999.0,26,-99.99,,,0.00,Acu-Link.com,2013-11-24 20:07:00,
2013-11-24 15:22:00,26.2,-5.6,29.89,NNE,22,5.3,-999.0,24,-99.99,,,0.00,Acu-Link.com,2013-11-24 20:22:00,
2013-11-24 15:37:00,25.7,-3.6,29.90,WSW,247,6.8,-999.0,27,-99.99,,,0.00,Acu-Link.com,2013-11-24 20:37:00,
2013-11-24 15:52:00,24.6,-1.7,29.91,SW,225,8.9,-999.0,31,-99.99,,,0.00,Acu-Link.com,2013-11-24 20:52:00,
2013-11-24 16:07:00,23.9,-1.0,29.92,North,0,8.3,-999.0,33,-99.99,,,0.00,Acu-Link.com,2013-11-24 21:07:00,
2013-11-24 16:22:00,23.4,-0.8,29.93,North,0,4.2,-999.0,34,-99.99,,,0.00,Acu-Link.com,2013-11-24 21:22:00,
2013-11-24 16:37:00,22.8,-0.1,29.94,WNW,292,11.4,-999.0,36,-99.99,,,0.00,Acu-Link.com,2013-11-24 21:37:00,
2013-11-24 16:53:00,22.6,-0.9,29.94,North,0,7.8,-999.0,35,-99.99,,,0.00,Acu-Link.com,2013-11-24 21:53:00,
2013-11-24 17:08:00,22.5,-1.0,29.95,NNE,22,8.3,-999.0,35,-99.99,,,0.00,Acu-Link.com,2013-11-24 22:08:00,
2013-11-24 17:23:00,22.1,-0.7,29.96,NNE,22,3.7,-999.0,36,-99.99,,,0.00,Acu-Link.com,2013-11-24 22:23:00,
2013-11-24 17:38:00,22.1,-0.7,29.97,SW,225,9.4,-999.0,36,-99.99,,,0.00,Acu-Link.com,2013-11-24 22:38:00,
2013-11-24 17:53:00,21.7,-0.5,29.98,North,0,9.4,-999.0,37,-99.99,,,0.00,Acu-Link.com,2013-11-24 22:53:00,
2013-11-24 18:08:00,21.7,-1.1,29.97,North,0,7.8,-999.0,36,-99.99,,,0.00,Acu-Link.com,2013-11-24 23:08:00,
2013-11-24 18:24:00,21.6,-0.6,29.98,North,0,4.7,-999.0,37,-99.99,,,0.00,Acu-Link.com,2013-11-24 23:24:00,
2013-11-24 18:39:00,21.4,-0.2,29.98,North,0,6.3,-999.0,38,-99.99,,,0.00,Acu-Link.com,2013-11-24 23:39:00,
2013-11-24 18:54:00,21.2,0.2,29.99,NNE,22,7.3,-999.0,39,-99.99,,,0.00,Acu-Link.com,2013-11-24 23:54:00,
2013-11-24 19:09:00,21.2,-0.4,30.00,WNW,292,8.9,-999.0,38,-99.99,,,0.00,Acu-Link.com,2013-11-25 00:09:00,
2013-11-24 19:24:00,21.2,0.2,29.99,WNW,292,8.9,-999.0,39,-99.99,,,0.00,Acu-Link.com,2013-11-25 00:24:00,
2013-11-24 19:40:00,21.0,0.0,30.00,NNE,22,6.8,-999.0,39,-99.99,,,0.00,Acu-Link.com,2013-11-25 00:40:00,
2013-11-24 19:55:00,20.8,0.3,30.00,East,90,9.4,-999.0,40,-99.99,,,0.00,Acu-Link.com,2013-11-25 00:55:00,
2013-11-24 20:10:00,20.8,0.3,30.01,NNE,22,10.4,-999.0,40,-99.99,,,0.00,Acu-Link.com,2013-11-25 01:10:00,
2013-11-24 20:25:00,20.5,0.1,30.02,SSE,157,6.3,-999.0,40,-99.99,,,0.00,Acu-Link.com,2013-11-25 01:25:00,
2013-11-24 20:40:00,20.5,1.1,30.02,NNE,22,5.8,-999.0,42,-99.99,,,0.00,Acu-Link.com,2013-11-25 01:40:00,
2013-11-24 20:55:00,20.3,1.4,30.03,North,0,4.7,-999.0,43,-99.99,,,0.00,Acu-Link.com,2013-11-25 01:55:00,
2013-11-24 21:11:00,20.3,0.9,30.03,North,0,4.7,-999.0,42,-99.99,,,0.00,Acu-Link.com,2013-11-25 02:11:00,
2013-11-24 21:26:00,19.9,0.6,30.03,ENE,67,8.9,-999.0,42,-99.99,,,0.00,Acu-Link.com,2013-11-25 02:26:00,
2013-11-24 21:41:00,19.9,0.0,30.05,South,180,4.7,-999.0,41,-99.99,,,0.00,Acu-Link.com,2013-11-25 02:41:00,
2013-11-24 21:56:00,19.8,-0.1,30.05,North,0,8.9,-999.0,41,-99.99,,,0.00,Acu-Link.com,2013-11-25 02:56:00,
2013-11-24 22:11:00,19.4,0.1,30.04,ESE,112,6.3,-999.0,42,-99.99,,,0.00,Acu-Link.com,2013-11-25 03:11:00,
2013-11-24 22:27:00,19.4,0.1,30.06,West,270,10.9,-999.0,42,-99.99,,,0.00,Acu-Link.com,2013-11-25 03:27:00,
2013-11-24 22:42:00,19.2,-0.1,30.07,ESE,112,5.3,-999.0,42,-99.99,,,0.00,Acu-Link.com,2013-11-25 03:42:00,
2013-11-24 22:57:00,19.0,-0.3,30.07,NE,45,11.4,-999.0,42,-99.99,,,0.00,Acu-Link.com,2013-11-25 03:57:00,
2013-11-24 23:12:00,18.9,0.1,30.08,NNE,22,4.7,-999.0,43,-99.99,,,0.00,Acu-Link.com,2013-11-25 04:12:00,
2013-11-24 23:27:00,18.9,0.1,30.09,NW,315,10.9,-999.0,43,-99.99,,,0.00,Acu-Link.com,2013-11-25 04:27:00,
2013-11-24 23:43:00,18.7,0.4,30.11,ESE,112,4.7,-999.0,44,-99.99,,,0.00,Acu-Link.com,2013-11-25 04:43:00,
2013-11-24 23:58:00,18.5,0.3,30.11,NNE,22,7.8,-999.0,44,-99.99,,,0.00,Acu-Link.com,2013-11-25 04:58:00,